Dellroy, Ohio
Current Conditions -  °F | °C
As of 12:53 PM on Saturday 25 Oct 2014 (Local Time) from KPHD Reporting Station
Scattered Clouds Scattered Clouds  
Wind Chill: 66°   Ceiling: Unl
Heat Index: 66°   Visibility: 10mi
Dew Point: 51°   Wind: 10mph
Humidity: 59%   Direction: 250°WSW
Pressure: 29.88"   Gusts: 24mph
Location:  40.55°N, 81.2°W
Report Text: KPHD 251653Z AUTO 25009G21KT 10SM SCT043 19/11 A2988 RMK AO2 SLP117 T01890106
Loading
Personal Weather Stations






























Interactive Weather Map
Tropical Storm Tracking
New forecast layout! Learn more

10-Day Weather Forecast

Advertisements
Track Severe Weather on mobile